METAR EFET 222250Z NIL=
METAR EFHA 222250Z AUTO 30005KT CAVOK M00/M01 Q1022=
METAR EFHK 222250Z 29003KT 250V310 CAVOK 00/M01 Q1021 NOSIG=
METAR EFIV 222250Z AUTO 32008KT 290V350 9999 OVC043 02/M01 Q1020=
METAR EFJO 222250Z AUTO 29009KT CAVOK 00/M01 Q1017=
METAR EFJY 222250Z AUTO 31005KT 270V340 CAVOK M00/M01 Q1021=
METAR EFKE 222250Z AUTO VRB02KT CAVOK 00/M01 Q1022=
METAR EFKI 222250Z AUTO 34009KT CAVOK 02/M01 Q1019=
METAR EFKK 222250Z AUTO 11003KT 040V200 CAVOK 02/02 Q1022=
METAR EFKS 222250Z AUTO 33011KT 300V360 9999 SCT015 OVC077 01/M01 Q1017=
METAR EFKT 222250Z AUTO 34008KT 9999 FEW037 01/M02 Q1022=
METAR EFKU 222250Z AUTO 31009KT CAVOK 01/M01 Q1019=
METAR EFLA 222250Z AUTO 30004KT 9999 SCT025/// 01/M00 Q1021=
METAR EFLP 222250Z AUTO 31007KT 280V360 9999 FEW013 03/01 Q1019=
METAR EFMA 222250Z AUTO VRB02KT 9999 SCT036 BKN044 02/01 Q1024=
METAR EFMI 222250Z AUTO 30004KT 260V350 CAVOK 01/01 Q1020=
METAR EFOU 222250Z AUTO 35004KT CAVOK 04/00 Q1021=
METAR EFPO 222250Z AUTO 01004KT CAVOK 03/01 Q1024=
METAR EFRO 222250Z AUTO 35009KT 9999 FEW039 00/M01 Q1020=
METAR EFSA 222250Z AUTO 28006KT CAVOK 01/M00 Q1018=
METAR EFSI 222250Z AUTO 28002KT 9999 FEW045 OVC065 01/00 Q1023=
METAR EFTP 222250Z AUTO VRB01KT CAVOK 00/M01 Q1023=
METAR EFTU 222250Z AUTO 01003KT 330V050 CAVOK 01/M00 Q1023=
METAR EFUT 222250Z AUTO 33005KT 280V020 CAVOK 01/M01 Q1020=
METAR EFVA 222250Z AUTO 07004KT 9999 SCT034 01/01 Q1024=
ILHF 222250Z AUTO 00000KT 0650 FG NCD M01/M02 Q1022=
ILHK 222250Z AUTO 29003KT CAVOK 01/01 Q1022=
ILIK 222250Z AUTO 32002KT CAVOK M01/M02 Q1022=
ILJY 222250Z AUTO 30005KT 9999 BKN049 01/M00 Q1021=
ILKA 222250Z AUTO 25004KT 9999 FEW042 BKN062 01/01 Q1023=
ILKM 222250Z AUTO 32008KT 9999 FEW049 01/M01 Q1019=
ILMI 222250Z AUTO 32004KT CAVOK M00/M01 Q1020=
ILPR 222250Z AUTO 28002KT CAVOK M02/M02 Q1021=
ILPU 222250Z AUTO 30005KT CAVOK M01/M02 Q1020=
ILQA 222250Z AUTO 29005KT 9999 BKN017 00/M01 Q1018=
ILQB 222250Z AUTO 32014KT 9999 FEW016 BKN039 03/01 Q1019=
ILQC 222250Z AUTO 32004KT CAVOK M02/M02 Q1022=
ILQD 222250Z AUTO /////KT 9999 BKN020 OVC043 02/M01 Q////=
ILQE 222250Z AUTO 31004KT CAVOK M02/M02 Q1023=
ILQH 222250Z AUTO 01019KT 9999 FEW029 07/01 Q1021=
ILQI 222250Z AUTO 32005KT //// // FEW041 M00/M02 Q1021=
ILQJ 222250Z AUTO 35015KT CAVOK 04/01 Q1022=
ILQK 222250Z AUTO 33010KT 9999 ////// M02/M03 Q1019=
ILQL 222250Z AUTO 01013KT 9999 ////// 05/02 Q1021=
ILQM 222250Z AUTO 33004KT 9999 BKN038 01/M01 Q////=
ILQN 222250Z AUTO 01003KT 9999 FEW007 SCT010 M00/M01 Q1022=
ILQO 222250Z AUTO 32007KT 9999 BKN035 OVC040 03/00 Q1020=
ILQP 222250Z AUTO 05008KT 9999 ////// 06/01 Q1022=
ILQQ 222250Z AUTO 33004KT CAVOK 01/M01 Q1022=
ILQR 222250Z AUTO 32004KT CAVOK 01/M01 Q1021=
ILQS 222250Z AUTO 31006KT CAVOK M01/M01 Q1017=
ILQT 222250Z AUTO 29003KT CAVOK M02/M03 Q1021=
ILQU 222250Z AUTO 32009KT 9999 FEW018 SCT022 BKN046 02/M00 Q1020=
ILQV 222250Z AUTO 32005KT 9999 FEW020 BKN039 01/M01 Q1019=
ILQX 222250Z AUTO 35003KT CAVOK 03/01 Q1021=
ILQY 222250Z AUTO 32003KT CAVOK M02/M02 Q1020=
ILRO 222250Z AUTO /////KT 9999 ////// 00/M01 Q////=
ILRU 222250Z AUTO 33006KT 9999 FEW048 M00/M01 Q1020=
ILWA 222250Z AUTO 35010KT CAVOK 04/01 Q1020=
ILWD 222250Z AUTO /////KT //// // NCD M01/M01 Q////=
ILWE 222250Z AUTO 30006KT 9999 SCT017 BKN037 M00/M01 Q1020=
ILWF 222250Z AUTO 28002KT CAVOK M03/M03 Q////=
ILWG 222250Z AUTO /////KT CAVOK M01/M01 Q1022=
ILXA 222250Z AUTO /////KT CAVOK 02/01 Q1022=
ILXB 222250Z AUTO 36002KT CAVOK 02/01 Q1024=
ILXC 222250Z AUTO 31007KT CAVOK 02/M00 Q1019=
ILXD 222250Z AUTO /////KT CAVOK 01/M01 Q1017=
ILXE 222250Z AUTO 31004KT CAVOK M02/M02 Q1019=
ILXF 222250Z AUTO 05013KT CAVOK 06/03 Q1024=
ILXG 222250Z AUTO 33004KT CAVOK 03/02 Q1024=
ILXI 222250Z AUTO 32005KT CAVOK 01/M01 Q1015=
ILXJ 222250Z AUTO 33004KT CAVOK 01/01 Q1018=
ILXK 222250Z AUTO 31003KT CAVOK M00/M01 Q1016=
ILXL 222250Z AUTO /////KT 9999 BKN060 //////CB 01/00 Q1022=
ILXM 222250Z AUTO /////KT CAVOK M00/M01 Q////=
ILXN 222250Z AUTO 34003KT CAVOK M02/M02 Q1023=
ILXO 222250Z AUTO 19002KT CAVOK M03/M03 Q1023=
ILXP 222250Z AUTO 03008KT CAVOK 06/03 Q1024=
ILXQ 222250Z AUTO /////KT CAVOK M01/M01 Q////=
ILXR 222250Z AUTO 32004KT CAVOK M01/M02 Q1018=
ILXS 222250Z AUTO 31007KT CAVOK 01/M01 Q1018=
ILXT 222250Z AUTO 34018KT 9999 BKN047 BKN070 09/03 Q1022=
ILXU 222250Z AUTO /////KT CAVOK 02/01 Q1018=
ILXV 222250Z AUTO 31005KT CAVOK 03/00 Q1020=
ILXW 222250Z AUTO 29003KT CAVOK M02/M03 Q1020=
ILXX 222250Z AUTO 35006KT CAVOK 03/01 Q1024=
ILXY 222250Z AUTO 35004KT CAVOK 02/01 Q1019=
ILXZ 222250Z AUTO 32009KT CAVOK 01/M01 Q////=
ILYL 222250Z AUTO 32004KT CAVOK M02/M02 Q1021=
ILZA 222250Z AUTO 35010KT CAVOK 06/02 Q1022=
ILZB 222250Z AUTO 13003KT CAVOK 02/02 Q1023=
ILZC 222250Z AUTO 33003KT 9999 FEW010 03/01 Q1019=
ILZD 222250Z AUTO 31005KT CAVOK 01/M00 Q1022=
ILZE 222250Z AUTO 34004KT CAVOK 03/00 Q1022=
ILZF 222300Z AUTO 31006KT CAVOK 00/M00 Q1022=
ILZG 222250Z AUTO /////KT CAVOK 02/01 Q1022=
ILZH 222300Z AUTO /////KT CAVOK 02/01 Q1023=
ILZI 222250Z AUTO 06014KT CAVOK 08/04 Q1024=
ILZJ 222250Z AUTO 33007KT CAVOK 01/00 Q1022=
ILZK 222250Z AUTO 05005KT CAVOK 07/02 Q1024=
ILZM 222250Z AUTO /////KT CAVOK M02/M02 Q1022=
ILZO 222250Z AUTO 01014KT CAVOK 05/02 Q1020=
ILZP 222250Z AUTO 32003KT CAVOK 00/M00 Q1023=
ILZQ 222250Z AUTO 01003KT CAVOK M02/M02 Q1021=
ILZR 222250Z AUTO 00000KT CAVOK 02/01 Q1023=
ILZS 222250Z AUTO 35007KT CAVOK 05/02 Q1022=
ILZT 222250Z AUTO 01008KT CAVOK 06/02 Q1022=
ILZU 222250Z AUTO 03007KT 9999 FEW038 08/01 Q1023=
ILZV 222250Z AUTO 35003KT CAVOK 00/M01 Q1021=
ILZW 222250Z AUTO 01013KT CAVOK 05/02 Q1021=
ILZX 222250Z AUTO 33004KT CAVOK 01/00 Q1022=
ILZY 222250Z AUTO 36005KT CAVOK 08/04 Q1023=
ILZZ 222250Z AUTO /////KT CAVOK 03/00 Q1021=